createdAt,value
2022-09-06T00:01:12.423Z,1.23
2022-09-06T00:03:40.642Z,1.30
2022-09-06T00:06:10.478Z,1.30
2022-09-06T00:08:40.066Z,1.10
2022-09-06T00:11:08.323Z,0.93
2022-09-06T00:13:36.274Z,1.00
2022-09-06T00:16:09.488Z,0.90
2022-09-06T00:18:37.667Z,0.90
2022-09-06T00:21:06.535Z,0.90
2022-09-06T00:23:34.420Z,0.80
2022-09-06T00:26:06.667Z,0.87
2022-09-06T00:28:34.533Z,0.80
2022-09-06T00:31:10.418Z,1.00
2022-09-06T00:33:38.416Z,1.00
2022-09-06T00:36:06.615Z,1.17
2022-09-06T00:38:34.849Z,0.97
2022-09-06T00:41:03.070Z,0.80
2022-09-06T00:43:32.099Z,1.00
2022-09-06T00:46:00.472Z,1.07
2022-09-06T00:48:28.743Z,0.80
2022-09-06T00:50:59.924Z,0.97
2022-09-06T00:53:28.533Z,1.07
2022-09-06T00:55:56.909Z,1.00
2022-09-06T00:58:26.085Z,0.90
2022-09-06T01:00:55.374Z,0.80
2022-09-06T01:03:24.237Z,0.60
2022-09-06T01:06:01.646Z,0.77
2022-09-06T01:08:41.072Z,1.00
2022-09-06T01:11:25.368Z,0.90
2022-09-06T01:14:01.107Z,0.80
2022-09-06T01:16:39.236Z,1.13
2022-09-06T01:19:31.809Z,1.30
2022-09-06T01:22:12.771Z,1.57
2022-09-06T01:25:05.122Z,1.47
2022-09-06T01:28:10.862Z,1.50
2022-09-06T01:30:46.775Z,1.67
2022-09-06T01:33:20.945Z,1.73
2022-09-06T01:35:52.170Z,1.90
2022-09-06T01:38:20.341Z,1.57
2022-09-06T01:40:48.151Z,1.87
2022-09-06T01:43:23.432Z,1.70
2022-09-06T01:46:01.930Z,1.60
2022-09-06T01:48:40.603Z,1.40
2022-09-06T01:51:24.306Z,1.10
2022-09-06T01:54:27.800Z,1.30
2022-09-06T01:57:10.002Z,1.60
2022-09-06T02:00:04.709Z,1.50
2022-09-06T02:02:42.744Z,1.50
2022-09-06T02:05:14.553Z,1.40
2022-09-06T02:07:45.524Z,1.50
2022-09-06T02:10:19.899Z,1.50
2022-09-06T02:12:53.059Z,1.50
2022-09-06T02:15:25.918Z,1.50
2022-09-06T02:18:00.561Z,1.70
2022-09-06T02:20:32.695Z,1.80
2022-09-06T02:23:03.250Z,1.83
2022-09-06T02:25:35.969Z,1.73
2022-09-06T02:28:04.542Z,1.90
2022-09-06T02:30:35.912Z,1.63
2022-09-06T02:33:09.454Z,1.50
2022-09-06T02:35:44.009Z,1.60
2022-09-06T02:38:12.130Z,1.97
2022-09-06T02:40:40.325Z,1.90
2022-09-06T02:43:08.618Z,1.93
2022-09-06T02:45:37.857Z,1.77
2022-09-06T02:48:05.897Z,1.77
2022-09-06T02:50:33.596Z,2.07
2022-09-06T02:53:06.661Z,1.90
2022-09-06T02:55:34.587Z,2.00
2022-09-06T02:58:02.639Z,1.93
2022-09-06T03:00:31.619Z,1.83
2022-09-06T03:03:00.972Z,2.10
2022-09-06T03:05:29.343Z,1.87
2022-09-06T03:07:57.630Z,2.30
2022-09-06T03:10:26.226Z,1.90
2022-09-06T03:12:54.652Z,2.20
2022-09-06T03:15:22.439Z,1.70
2022-09-06T03:17:50.171Z,2.10
2022-09-06T03:20:19.261Z,2.10
2022-09-06T03:22:47.025Z,1.63
2022-09-06T03:25:14.926Z,1.77
2022-09-06T03:27:42.652Z,1.80
2022-09-06T03:30:11.670Z,2.13
2022-09-06T03:32:39.474Z,1.90
2022-09-06T03:35:07.817Z,2.07
2022-09-06T03:37:37.058Z,2.50
2022-09-06T03:40:05.063Z,2.53
2022-09-06T03:42:32.784Z,2.37
2022-09-06T03:45:00.541Z,2.73
2022-09-06T03:47:28.231Z,2.70
2022-09-06T03:49:55.904Z,2.53
2022-09-06T03:52:23.725Z,2.47
2022-09-06T03:54:52.729Z,2.53
2022-09-06T03:57:20.440Z,2.57
2022-09-06T03:59:48.195Z,2.30
2022-09-06T04:02:15.902Z,2.63
2022-09-06T04:04:43.835Z,2.80
2022-09-06T04:07:11.839Z,3.20
2022-09-06T04:09:39.526Z,2.60
2022-09-06T04:12:09.057Z,2.60
2022-09-06T04:14:36.737Z,2.67
2022-09-06T04:17:04.448Z,2.33
2022-09-06T04:19:32.113Z,2.57
2022-09-06T04:21:59.856Z,3.03
2022-09-06T04:24:27.516Z,2.40
2022-09-06T04:26:55.180Z,2.67
2022-09-06T04:29:24.642Z,2.90
2022-09-06T04:31:52.428Z,2.53
2022-09-06T04:34:20.617Z,3.03
2022-09-06T04:36:48.619Z,2.53
2022-09-06T04:39:16.427Z,2.80
2022-09-06T04:41:44.129Z,3.07
2022-09-06T04:44:11.793Z,2.63
2022-09-06T04:46:42.703Z,3.07
2022-09-06T04:49:10.630Z,3.10
2022-09-06T04:51:39.517Z,2.67
2022-09-06T04:54:07.289Z,2.90
2022-09-06T04:56:35.039Z,2.90
2022-09-06T04:59:03.046Z,3.30
2022-09-06T05:01:30.805Z,2.83
2022-09-06T05:04:00.000Z,2.80
2022-09-06T05:06:27.754Z,2.87
2022-09-06T05:08:55.528Z,3.27
2022-09-06T05:11:23.217Z,3.17
2022-09-06T05:13:51.218Z,2.90
2022-09-06T05:16:19.032Z,3.10
2022-09-06T05:18:46.878Z,3.43
2022-09-06T05:21:16.152Z,3.10
2022-09-06T05:23:44.513Z,3.60
2022-09-06T05:26:12.283Z,3.00
2022-09-06T05:28:40.097Z,3.20
2022-09-06T05:31:09.330Z,3.53
2022-09-06T05:33:37.498Z,3.97
2022-09-06T05:36:05.899Z,4.40
2022-09-06T05:38:35.071Z,4.47
2022-09-06T05:41:02.841Z,5.00
2022-09-06T05:43:30.918Z,5.17
2022-09-06T05:45:58.857Z,4.90
2022-09-06T05:48:26.703Z,4.47
2022-09-06T05:51:01.917Z,4.90
2022-09-06T05:53:36.538Z,5.07
2022-09-06T05:56:05.599Z,5.00
2022-09-06T05:58:33.682Z,5.27
2022-09-06T06:01:09.381Z,4.70
2022-09-06T06:03:37.111Z,4.10
2022-09-06T06:06:04.909Z,4.57
2022-09-06T06:08:32.622Z,4.30
2022-09-06T06:11:02.949Z,4.83
2022-09-06T06:13:34.861Z,4.33
2022-09-06T06:16:03.499Z,5.20
2022-09-06T06:18:31.258Z,4.27
2022-09-06T06:21:09.591Z,4.43
2022-09-06T06:23:37.566Z,4.60
2022-09-06T06:26:07.820Z,4.40
2022-09-06T06:28:36.668Z,4.67
2022-09-06T06:31:04.423Z,5.10
2022-09-06T06:33:32.509Z,4.37
2022-09-06T06:36:01.831Z,4.77
2022-09-06T06:38:33.394Z,4.60
2022-09-06T06:41:06.001Z,4.63
2022-09-06T06:43:37.852Z,4.80
2022-09-06T06:46:06.611Z,4.60
2022-09-06T06:48:34.446Z,4.70
2022-09-06T06:51:02.670Z,4.27
2022-09-06T06:53:30.461Z,4.27
2022-09-06T06:55:58.151Z,3.97
2022-09-06T06:58:26.296Z,3.87
2022-09-06T07:00:55.518Z,4.03
2022-09-06T07:03:23.362Z,3.30
2022-09-06T07:08:39.123Z,3.40
2022-09-06T07:11:07.929Z,3.33
2022-09-06T07:13:35.665Z,3.37
2022-09-06T07:16:13.580Z,3.47
2022-09-06T07:18:43.070Z,3.47
2022-09-06T07:24:08.422Z,3.17
2022-09-06T07:26:38.180Z,3.63
2022-09-06T07:29:07.541Z,3.87
2022-09-06T07:34:26.893Z,3.40
2022-09-06T07:36:54.932Z,3.30
2022-09-06T07:39:23.199Z,3.73
2022-09-06T07:41:51.008Z,3.67
2022-09-06T07:44:18.705Z,3.43
2022-09-06T07:46:47.870Z,3.80
2022-09-06T07:49:15.707Z,4.13
2022-09-06T07:51:43.852Z,3.93
2022-09-06T07:54:30.348Z,4.13
2022-09-06T07:56:58.693Z,3.67
2022-09-06T07:59:27.474Z,4.90
2022-09-06T08:01:56.657Z,3.87
2022-09-06T08:04:24.504Z,4.60
2022-09-06T08:09:40.382Z,4.07
2022-09-06T08:12:09.038Z,4.37
2022-09-06T08:14:37.119Z,4.00
2022-09-06T08:17:06.268Z,4.07
2022-09-06T08:19:34.552Z,4.03
2022-09-06T08:22:02.362Z,4.47
2022-09-06T08:24:30.547Z,4.57
2022-09-06T08:26:58.217Z,4.47
2022-09-06T08:29:26.982Z,4.20
2022-09-06T08:31:54.714Z,5.00
2022-09-06T08:34:23.864Z,4.77
2022-09-06T08:36:51.897Z,4.03
2022-09-06T08:39:19.789Z,3.80
2022-09-06T08:41:53.203Z,3.97
2022-09-06T08:47:14.025Z,3.43
2022-09-06T08:49:45.240Z,3.57
2022-09-06T08:52:26.668Z,3.80
2022-09-06T08:55:08.682Z,3.57
2022-09-06T08:57:51.565Z,3.80
2022-09-06T09:00:20.650Z,3.50
2022-09-06T09:02:52.181Z,3.70
2022-09-06T09:05:25.647Z,3.93
2022-09-06T09:08:03.916Z,4.10
2022-09-06T09:10:35.821Z,3.97
2022-09-06T09:13:08.605Z,4.40
2022-09-06T09:15:40.366Z,4.30
2022-09-06T09:18:08.807Z,4.17
2022-09-06T09:20:38.825Z,4.00
2022-09-06T09:23:06.540Z,4.33
2022-09-06T09:25:35.734Z,4.03
2022-09-06T09:28:03.948Z,4.37
2022-09-06T09:30:48.594Z,4.50
2022-09-06T09:33:28.972Z,4.40
2022-09-06T09:36:00.459Z,3.70
2022-09-06T09:38:30.791Z,4.30
2022-09-06T09:41:01.313Z,4.10
2022-09-06T09:43:32.045Z,4.30
2022-09-06T09:46:18.377Z,3.70
2022-09-06T09:49:03.282Z,4.10
2022-09-06T09:51:34.079Z,3.90
2022-09-06T09:54:03.772Z,4.45
2022-09-06T09:56:38.765Z,4.27
2022-09-06T09:59:17.005Z,4.00
2022-09-06T10:01:44.832Z,3.60
2022-09-06T10:07:15.611Z,3.30
2022-09-06T10:09:44.622Z,4.05
2022-09-06T10:12:18.377Z,3.87
2022-09-06T10:14:47.590Z,4.27
2022-09-06T10:17:29.685Z,4.23
2022-09-06T10:19:57.719Z,4.47
2022-09-06T10:22:32.498Z,4.80
2022-09-06T10:25:19.676Z,4.70
2022-09-06T10:28:27.410Z,5.10
2022-09-06T10:31:11.300Z,5.27
2022-09-06T10:33:53.827Z,4.63
2022-09-06T10:36:29.377Z,4.80
2022-09-06T10:39:04.136Z,4.70
2022-09-06T10:42:05.071Z,4.70
2022-09-06T10:44:49.033Z,5.22
2022-09-06T10:47:17.429Z,5.10
2022-09-06T10:49:49.756Z,4.85
2022-09-06T10:52:24.161Z,4.28
2022-09-06T10:54:57.310Z,4.53
2022-09-06T11:00:20.258Z,4.95
2022-09-06T11:05:49.216Z,4.43
2022-09-06T11:11:19.584Z,4.07
2022-09-06T11:13:47.406Z,4.50
2022-09-06T11:16:20.828Z,3.85
2022-09-06T11:18:52.899Z,3.78
2022-09-06T11:22:00.876Z,3.72
2022-09-06T11:24:42.807Z,3.63
2022-09-06T11:27:17.628Z,2.90
2022-09-06T11:29:48.247Z,3.60
2022-09-06T11:32:32.889Z,3.03
2022-09-06T11:35:04.100Z,2.20
2022-09-06T11:37:34.706Z,2.05
2022-09-06T11:40:29.184Z,1.75
2022-09-06T11:43:17.591Z,1.90
2022-09-06T11:45:48.810Z,2.30
2022-09-06T11:48:36.433Z,1.88
2022-09-06T11:51:10.646Z,1.45
2022-09-06T11:54:04.837Z,1.90
2022-09-06T11:56:40.197Z,1.80
2022-09-06T11:59:22.442Z,2.10
2022-09-06T12:02:02.471Z,1.80
2022-09-06T12:05:14.983Z,2.60
2022-09-06T12:08:14.253Z,2.45
2022-09-06T12:11:01.918Z,1.75
2022-09-06T12:13:41.262Z,2.05
2022-09-06T12:16:12.678Z,1.90
2022-09-06T12:19:00.886Z,1.70
2022-09-06T12:21:52.253Z,1.52
2022-09-06T12:24:55.849Z,1.23
2022-09-06T12:27:24.767Z,1.73
2022-09-06T12:29:58.055Z,1.80
2022-09-06T12:32:36.186Z,1.63
2022-09-06T12:37:56.938Z,1.20
2022-09-06T12:40:29.497Z,1.17
2022-09-06T12:42:57.721Z,1.25
2022-09-06T12:45:27.571Z,1.70
2022-09-06T12:48:09.591Z,2.10
2022-09-06T12:50:37.750Z,2.15
2022-09-06T12:53:23.386Z,1.77
2022-09-06T12:56:04.414Z,1.90
2022-09-06T12:58:32.196Z,1.75
2022-09-06T13:01:05.505Z,1.65
2022-09-06T13:03:41.800Z,1.55
2022-09-06T13:06:13.769Z,1.58
2022-09-06T13:08:46.506Z,1.35
2022-09-06T13:11:17.329Z,1.60
2022-09-06T13:13:49.763Z,1.60
2022-09-06T13:16:26.200Z,1.90
2022-09-06T13:18:55.467Z,1.60
2022-09-06T13:21:29.610Z,1.38
2022-09-06T13:23:59.052Z,1.67
2022-09-06T13:26:35.441Z,1.20
2022-09-06T13:29:22.684Z,1.40
2022-09-06T13:31:52.819Z,1.20
2022-09-06T13:34:24.482Z,1.15
2022-09-06T13:36:54.224Z,1.27
2022-09-06T13:39:33.175Z,1.42
2022-09-06T13:42:03.655Z,0.98
2022-09-06T13:44:33.421Z,1.25
2022-09-06T13:47:01.157Z,1.08
2022-09-06T13:49:31.030Z,1.02
2022-09-06T13:52:03.072Z,0.90
2022-09-06T13:54:32.204Z,1.10
2022-09-06T13:57:01.697Z,1.52
2022-09-06T13:59:30.315Z,1.30
2022-09-06T14:02:02.293Z,0.90
2022-09-06T14:04:32.691Z,1.17
2022-09-06T14:07:00.679Z,0.73
2022-09-06T14:09:28.365Z,0.75
2022-09-06T14:11:56.181Z,0.85
2022-09-06T14:14:24.414Z,0.63
2022-09-06T14:16:52.858Z,0.98
2022-09-06T14:19:20.623Z,0.98
2022-09-06T14:21:49.657Z,1.00
2022-09-06T14:24:17.752Z,1.13
2022-09-06T14:26:45.514Z,0.75
2022-09-06T14:29:13.179Z,0.80
2022-09-06T14:31:40.926Z,1.00
2022-09-06T14:34:08.609Z,0.90
2022-09-06T14:36:36.338Z,0.90
2022-09-06T14:39:05.945Z,0.88
2022-09-06T14:41:33.832Z,0.90
2022-09-06T14:44:01.661Z,1.17
2022-09-06T14:46:30.244Z,0.60
2022-09-06T14:48:59.047Z,0.90
2022-09-06T14:51:27.355Z,0.95
2022-09-06T14:53:57.497Z,1.00
2022-09-06T14:56:27.207Z,1.00
2022-09-06T14:58:57.406Z,1.00
2022-09-06T15:01:28.569Z,0.95
2022-09-06T15:03:58.295Z,0.70
2022-09-06T15:06:27.610Z,0.85
2022-09-06T15:08:59.312Z,1.00
2022-09-06T15:11:34.194Z,0.90
2022-09-06T15:14:03.977Z,0.77
2022-09-06T15:16:33.402Z,0.80
2022-09-06T15:19:02.951Z,1.00
2022-09-06T15:21:31.929Z,0.90
2022-09-06T15:24:00.041Z,1.00
2022-09-06T15:26:27.779Z,1.00
2022-09-06T15:28:56.862Z,1.00
2022-09-06T15:31:24.674Z,1.00
2022-09-06T15:33:53.624Z,0.90
2022-09-06T15:36:21.949Z,0.80
2022-09-06T15:38:52.331Z,0.93
2022-09-06T15:41:22.167Z,0.80
2022-09-06T15:43:51.371Z,1.00
2022-09-06T15:46:23.171Z,0.70
2022-09-06T15:48:53.692Z,0.90
2022-09-06T15:51:21.868Z,0.90
2022-09-06T15:53:49.817Z,0.82
2022-09-06T15:56:18.761Z,0.77
2022-09-06T15:58:47.223Z,0.80
2022-09-06T16:01:16.654Z,0.80
2022-09-06T16:03:47.677Z,0.90
2022-09-06T16:06:26.842Z,0.80
2022-09-06T16:08:59.389Z,1.10
2022-09-06T16:11:27.637Z,1.38
2022-09-06T16:13:55.990Z,1.10
2022-09-06T16:16:24.023Z,1.23
2022-09-06T16:18:53.207Z,1.00
2022-09-06T16:21:23.965Z,1.05
2022-09-06T16:23:55.111Z,1.50
2022-09-06T16:26:25.049Z,1.10
2022-09-06T16:28:54.046Z,1.13
2022-09-06T16:31:23.333Z,0.88
2022-09-06T16:33:51.669Z,0.88
2022-09-06T16:36:21.785Z,0.82
2022-09-06T16:38:50.407Z,1.30
2022-09-06T16:41:20.562Z,1.05
2022-09-06T16:43:49.284Z,1.02
2022-09-06T16:46:17.766Z,0.90
2022-09-06T16:48:51.162Z,1.00
2022-09-06T16:51:21.842Z,1.00
2022-09-06T16:53:53.263Z,1.35
2022-09-06T16:56:23.558Z,0.98
2022-09-06T16:58:54.074Z,1.00
2022-09-06T17:01:22.719Z,0.90
2022-09-06T17:03:51.402Z,0.85
2022-09-06T17:06:21.636Z,1.20
2022-09-06T17:08:49.526Z,1.10
2022-09-06T17:11:20.151Z,1.05
2022-09-06T17:13:49.920Z,1.00
2022-09-06T17:16:36.559Z,0.90
2022-09-06T17:19:05.936Z,1.00
2022-09-06T17:21:35.510Z,1.20
2022-09-06T17:24:04.681Z,1.02
2022-09-06T17:26:34.019Z,0.93
2022-09-06T17:29:03.136Z,1.10
2022-09-06T17:31:31.235Z,1.38
2022-09-06T17:33:59.593Z,1.13
2022-09-06T17:36:30.457Z,1.10
2022-09-06T17:39:04.057Z,1.10
2022-09-06T17:41:36.674Z,1.20
2022-09-06T17:44:05.651Z,1.10
2022-09-06T17:46:33.923Z,1.10
2022-09-06T17:49:01.641Z,1.50
2022-09-06T17:51:29.567Z,1.05
2022-09-06T17:53:57.320Z,1.02
2022-09-06T17:56:26.707Z,1.30
2022-09-06T17:58:56.292Z,1.00
2022-09-06T18:01:25.650Z,1.20
2022-09-06T18:03:53.797Z,1.00
2022-09-06T18:06:24.389Z,1.35
2022-09-06T18:08:54.088Z,1.27
2022-09-06T18:11:24.277Z,1.67
2022-09-06T18:13:57.725Z,1.60
2022-09-06T18:16:26.138Z,1.40
2022-09-06T18:18:56.005Z,1.70
2022-09-06T18:21:25.229Z,1.83
2022-09-06T18:23:53.525Z,1.40
2022-09-06T18:26:21.332Z,1.95
2022-09-06T18:28:49.180Z,2.35
2022-09-06T18:31:20.662Z,1.45
2022-09-06T18:33:48.532Z,1.50
2022-09-06T18:36:17.168Z,1.50
2022-09-06T18:38:45.777Z,1.55
2022-09-06T18:41:35.113Z,1.20
2022-09-06T18:44:03.730Z,1.33
2022-09-06T18:46:34.558Z,1.30
2022-09-06T18:49:02.287Z,1.10
2022-09-06T18:51:30.103Z,1.25
2022-09-06T18:53:59.261Z,1.20
2022-09-06T18:56:27.834Z,1.50
2022-09-06T18:58:58.323Z,1.80
2022-09-06T19:01:28.460Z,1.60
2022-09-06T19:03:58.785Z,2.00
2022-09-06T19:06:28.234Z,2.22
2022-09-06T19:08:59.966Z,1.77
2022-09-06T19:11:27.885Z,1.83
2022-09-06T19:13:57.013Z,1.77
2022-09-06T19:16:26.255Z,1.90
2022-09-06T19:18:56.084Z,1.40
2022-09-06T19:21:27.492Z,1.52
2022-09-06T19:23:57.594Z,1.60
2022-09-06T19:26:26.869Z,1.90
2022-09-06T19:28:56.058Z,1.30
2022-09-06T19:31:25.399Z,1.55
2022-09-06T19:33:53.968Z,2.00
2022-09-06T19:36:22.911Z,1.25
2022-09-06T19:39:04.788Z,1.40
2022-09-06T19:41:35.715Z,1.33
2022-09-06T19:44:05.818Z,1.05
2022-09-06T19:46:34.929Z,1.42
2022-09-06T19:49:03.318Z,1.38
2022-09-06T19:51:31.605Z,1.45
2022-09-06T19:54:01.189Z,1.92
2022-09-06T19:56:31.692Z,2.00
2022-09-06T19:59:02.136Z,1.73
2022-09-06T20:01:32.645Z,1.88
2022-09-06T20:04:02.661Z,1.70
2022-09-06T20:06:31.526Z,1.90
2022-09-06T20:09:02.276Z,1.60
2022-09-06T20:11:32.185Z,2.05
2022-09-06T20:14:01.039Z,2.30
2022-09-06T20:16:30.460Z,2.47
2022-09-06T20:18:59.943Z,2.38
2022-09-06T20:21:28.310Z,2.50
2022-09-06T20:23:58.372Z,2.90
2022-09-06T20:26:30.321Z,3.25
2022-09-06T20:28:59.383Z,3.00
2022-09-06T20:31:28.966Z,3.13
2022-09-06T20:33:57.130Z,3.30
2022-09-06T20:36:25.251Z,3.33
2022-09-06T20:38:53.268Z,3.13
2022-09-06T20:41:23.668Z,3.10
2022-09-06T20:43:54.578Z,2.90
2022-09-06T20:46:24.504Z,3.00
2022-09-06T20:48:52.781Z,3.80
2022-09-06T20:51:22.740Z,3.88
2022-09-06T20:53:53.884Z,4.45
2022-09-06T20:56:22.979Z,4.65
2022-09-06T20:58:52.264Z,4.53
2022-09-06T21:01:23.431Z,4.57
2022-09-06T21:03:53.595Z,4.35
2022-09-06T21:06:22.380Z,4.57
2022-09-06T21:08:50.804Z,4.90
2022-09-06T21:11:18.992Z,4.40
2022-09-06T21:13:50.660Z,3.78
2022-09-06T21:16:23.955Z,3.85
2022-09-06T21:18:54.873Z,3.50
2022-09-06T21:21:23.790Z,3.70
2022-09-06T21:23:51.549Z,3.30
2022-09-06T21:26:19.465Z,2.67
2022-09-06T21:28:48.459Z,1.88
2022-09-06T21:31:17.971Z,1.97
2022-09-06T21:33:47.365Z,2.13
2022-09-06T21:36:19.457Z,2.05
2022-09-06T21:38:49.235Z,2.37
2022-09-06T21:41:18.848Z,2.43
2022-09-06T21:43:47.272Z,2.40
2022-09-06T21:46:16.892Z,2.67
2022-09-06T21:48:46.642Z,2.73
2022-09-06T21:51:18.570Z,2.40
2022-09-06T21:53:49.197Z,2.77
2022-09-06T21:56:19.577Z,2.70
2022-09-06T21:58:50.532Z,2.60
2022-09-06T22:01:18.960Z,2.60
2022-09-06T22:03:47.668Z,2.47
2022-09-06T22:06:19.117Z,3.20
2022-09-06T22:08:47.282Z,3.37
2022-09-06T22:11:17.366Z,3.77
2022-09-06T22:13:46.052Z,3.73
2022-09-06T22:16:15.835Z,3.70
2022-09-06T22:18:44.936Z,4.03
2022-09-06T22:21:15.325Z,3.53
2022-09-06T22:23:44.559Z,4.43
2022-09-06T22:26:13.379Z,3.57
2022-09-06T22:28:41.274Z,3.60
2022-09-06T22:31:09.667Z,3.60
2022-09-06T22:33:37.875Z,3.23
2022-09-06T22:36:07.577Z,2.80
2022-09-06T22:38:35.350Z,2.90
2022-09-06T22:41:04.909Z,2.67
2022-09-06T22:43:33.046Z,2.40
2022-09-06T22:46:05.423Z,2.27
2022-09-06T22:48:33.747Z,2.27
2022-09-06T22:51:01.778Z,2.10
2022-09-06T22:53:30.410Z,2.20
2022-09-06T22:55:58.244Z,2.30
2022-09-06T22:58:27.970Z,1.70
2022-09-06T23:00:56.625Z,1.77
2022-09-06T23:03:24.500Z,1.87
2022-09-06T23:05:52.207Z,1.73
2022-09-06T23:08:19.964Z,1.80
2022-09-06T23:10:47.617Z,1.70
2022-09-06T23:13:17.283Z,1.40
2022-09-06T23:15:47.719Z,1.30
2022-09-06T23:18:16.152Z,1.57
2022-09-06T23:20:43.801Z,1.23
2022-09-06T23:23:11.778Z,1.23
2022-09-06T23:25:40.339Z,1.30
2022-09-06T23:28:08.078Z,1.40
2022-09-06T23:30:38.610Z,1.10
2022-09-06T23:33:07.741Z,1.00
2022-09-06T23:35:35.455Z,1.43
2022-09-06T23:38:03.157Z,1.27
2022-09-06T23:40:30.914Z,1.13
2022-09-06T23:42:58.648Z,1.10
2022-09-06T23:45:26.357Z,1.07
2022-09-06T23:47:54.037Z,1.40
2022-09-06T23:50:23.080Z,1.37
2022-09-06T23:52:50.786Z,1.30
2022-09-06T23:55:18.531Z,1.43
2022-09-06T23:57:46.205Z,1.60
